createdAt,value
2018-06-22T00:00:19.473Z,14.80
2018-06-22T00:02:52.619Z,14.71
2018-06-22T00:05:39.475Z,14.68
2018-06-22T00:08:11.069Z,14.55
2018-06-22T00:10:50.137Z,14.52
2018-06-22T00:13:21.333Z,14.66
2018-06-22T00:15:57.251Z,14.70
2018-06-22T00:18:28.492Z,14.62
2018-06-22T00:20:59.258Z,14.60
2018-06-22T00:23:30.584Z,14.58
2018-06-22T00:26:05.818Z,14.69
2018-06-22T00:28:36.143Z,14.67
2018-06-22T00:31:07.103Z,14.19
2018-06-22T00:33:39.209Z,14.62
2018-06-22T00:36:12.007Z,14.72
2018-06-22T00:38:43.959Z,14.83
2018-06-22T00:41:14.772Z,15.02
2018-06-22T00:43:55.544Z,15.03
2018-06-22T00:46:26.792Z,15.08
2018-06-22T00:48:59.488Z,14.74
2018-06-22T00:51:31.500Z,14.99
2018-06-22T00:54:14.936Z,14.87
2018-06-22T00:56:46.980Z,14.86
2018-06-22T00:59:18.070Z,14.64
2018-06-22T01:01:49.559Z,14.60
2018-06-22T01:04:23.914Z,14.41
2018-06-22T01:06:58.800Z,14.47
2018-06-22T01:09:33.108Z,14.44
2018-06-22T01:12:06.292Z,14.49
2018-06-22T01:15:09.453Z,14.33
2018-06-22T01:17:44.656Z,14.18
2018-06-22T01:20:15.933Z,14.12
2018-06-22T01:22:49.751Z,14.14
2018-06-22T01:25:20.886Z,14.23
2018-06-22T01:27:54.766Z,14.29
2018-06-22T01:30:33.099Z,14.20
2018-06-22T01:33:04.237Z,14.10
2018-06-22T01:35:37.068Z,14.17
2018-06-22T01:38:13.914Z,14.12
2018-06-22T01:40:50.936Z,14.09
2018-06-22T01:43:21.213Z,14.01
2018-06-22T01:45:53.746Z,14.00
2018-06-22T01:48:24.871Z,13.99
2018-06-22T01:50:55.509Z,13.95
2018-06-22T01:53:26.218Z,13.32
2018-06-22T01:55:56.782Z,14.07
2018-06-22T01:58:27.380Z,14.20
2018-06-22T02:00:58.417Z,14.30
2018-06-22T02:03:28.689Z,14.37
2018-06-22T02:06:00.074Z,14.42
2018-06-22T02:08:31.150Z,14.31
2018-06-22T02:11:01.633Z,14.30
2018-06-22T02:13:32.990Z,14.26
2018-06-22T02:16:04.397Z,14.35
2018-06-22T02:18:35.365Z,14.26
2018-06-22T02:21:06.012Z,14.35
2018-06-22T02:23:36.726Z,14.48
2018-06-22T02:26:07.799Z,14.60
2018-06-22T02:28:39.389Z,14.46
2018-06-22T02:31:09.975Z,14.52
2018-06-22T02:33:41.555Z,14.48
2018-06-22T02:36:12.367Z,14.49
2018-06-22T02:38:42.536Z,14.53
2018-06-22T02:41:13.530Z,14.50
2018-06-22T02:43:44.786Z,14.51
2018-06-22T02:46:16.285Z,14.47
2018-06-22T02:48:50.374Z,14.46
2018-06-22T02:51:22.629Z,14.43
2018-06-22T02:53:53.900Z,14.46
2018-06-22T02:56:24.606Z,14.50
2018-06-22T02:58:55.211Z,14.54
2018-06-22T03:01:26.496Z,14.41
2018-06-22T03:03:57.262Z,14.44
2018-06-22T03:06:30.113Z,14.37
2018-06-22T03:09:01.445Z,14.34
2018-06-22T03:11:33.044Z,14.41
2018-06-22T03:14:04.505Z,14.44
2018-06-22T03:16:36.652Z,14.26
2018-06-22T03:19:07.619Z,14.21
2018-06-22T03:21:40.299Z,14.17
2018-06-22T03:24:11.535Z,14.18
2018-06-22T03:26:42.934Z,14.22
2018-06-22T03:29:13.356Z,14.18
2018-06-22T03:31:44.408Z,14.15
2018-06-22T03:34:14.619Z,14.19
2018-06-22T03:36:45.791Z,14.24
2018-06-22T03:39:17.740Z,14.33
2018-06-22T03:41:48.641Z,14.02
2018-06-22T03:44:19.252Z,14.41
2018-06-22T03:46:50.992Z,14.44
2018-06-22T03:49:22.722Z,14.40
2018-06-22T03:51:53.740Z,14.47
2018-06-22T03:54:24.667Z,14.42
2018-06-22T03:56:55.069Z,14.48
2018-06-22T03:59:26.526Z,14.48
2018-06-22T04:01:58.599Z,14.45
2018-06-22T04:04:29.225Z,14.39
2018-06-22T04:07:00.305Z,14.40
2018-06-22T04:09:31.095Z,14.33
2018-06-22T04:12:01.398Z,14.36
2018-06-22T04:14:32.850Z,14.36
2018-06-22T04:17:03.422Z,14.46
2018-06-22T04:19:35.190Z,14.38
2018-06-22T04:22:12.740Z,14.30
2018-06-22T04:24:43.445Z,14.45
2018-06-22T04:27:13.980Z,14.52
2018-06-22T04:29:44.827Z,14.66
2018-06-22T04:32:16.444Z,14.67
2018-06-22T04:34:47.718Z,14.59
2018-06-22T04:37:20.008Z,14.58
2018-06-22T04:39:56.365Z,14.70
2018-06-22T04:42:28.304Z,14.75
2018-06-22T04:45:00.029Z,14.69
2018-06-22T04:47:40.933Z,14.57
2018-06-22T04:50:16.774Z,14.58
2018-06-22T04:52:55.322Z,14.61
2018-06-22T04:55:35.240Z,14.79
2018-06-22T04:58:13.064Z,14.80
2018-06-22T05:00:44.761Z,14.88
2018-06-22T05:03:16.017Z,14.93
2018-06-22T05:05:46.348Z,14.97
2018-06-22T05:08:16.688Z,15.01
2018-06-22T05:13:43.205Z,14.84
2018-06-22T05:16:14.027Z,14.75
2018-06-22T05:18:44.560Z,14.80
2018-06-22T05:21:17.879Z,14.82
2018-06-22T05:23:50.707Z,14.90
2018-06-22T05:26:34.068Z,14.84
2018-06-22T05:29:05.274Z,14.67
2018-06-22T05:31:37.796Z,14.79
2018-06-22T05:34:08.340Z,14.99
2018-06-22T05:36:38.678Z,15.04
2018-06-22T05:39:11.216Z,14.95
2018-06-22T05:41:41.637Z,14.98
2018-06-22T05:44:11.964Z,15.01
2018-06-22T05:46:42.923Z,15.15
2018-06-22T05:49:13.192Z,15.15
2018-06-22T05:51:45.671Z,15.06
2018-06-22T05:54:16.745Z,15.03
2018-06-22T05:56:47.348Z,15.13
2018-06-22T05:59:18.372Z,15.19
2018-06-22T06:04:33.537Z,15.07
2018-06-22T06:07:04.482Z,15.22
2018-06-22T06:09:39.291Z,15.24
2018-06-22T06:12:09.797Z,15.39
2018-06-22T06:14:40.342Z,15.45
2018-06-22T06:17:11.559Z,15.56
2018-06-22T06:19:42.758Z,15.65
2018-06-22T06:22:15.014Z,15.91
2018-06-22T06:24:46.499Z,16.40
2018-06-22T06:27:16.846Z,16.31
2018-06-22T06:29:51.162Z,16.10
2018-06-22T06:32:21.485Z,16.10
2018-06-22T06:34:52.624Z,16.21
2018-06-22T06:37:23.826Z,16.06
2018-06-22T06:39:55.181Z,16.12
2018-06-22T06:42:28.248Z,16.21
2018-06-22T06:45:12.550Z,16.13
2018-06-22T06:47:43.188Z,15.89
2018-06-22T06:50:14.353Z,15.90
2018-06-22T06:52:45.101Z,16.05
2018-06-22T06:55:15.631Z,15.96
2018-06-22T06:57:47.322Z,16.05
2018-06-22T07:00:18.502Z,16.20
2018-06-22T07:02:49.959Z,16.44
2018-06-22T07:05:20.508Z,16.33
2018-06-22T07:07:53.387Z,16.48
2018-06-22T07:10:24.250Z,16.53
2018-06-22T07:12:54.620Z,16.54
2018-06-22T07:15:26.601Z,16.61
2018-06-22T07:18:06.819Z,16.61
2018-06-22T07:20:40.794Z,16.76
2018-06-22T07:23:12.477Z,16.83
2018-06-22T07:28:37.708Z,16.74
2018-06-22T07:31:14.426Z,16.55
2018-06-22T07:33:47.061Z,16.61
2018-06-22T07:36:34.022Z,16.66
2018-06-22T07:39:13.932Z,16.93
2018-06-22T07:41:57.981Z,16.80
2018-06-22T07:44:46.500Z,16.88
2018-06-22T07:47:18.779Z,17.00
2018-06-22T07:49:51.392Z,17.08
2018-06-22T07:52:24.453Z,17.07
2018-06-22T07:54:55.133Z,16.97
2018-06-22T07:57:26.025Z,17.02
2018-06-22T08:00:23.693Z,17.06
2018-06-22T08:02:55.662Z,16.98
2018-06-22T08:05:26.938Z,16.86
2018-06-22T08:07:58.444Z,17.04
2018-06-22T08:10:30.683Z,17.06
2018-06-22T08:13:12.295Z,16.97
2018-06-22T08:15:45.129Z,16.94
2018-06-22T08:18:15.656Z,17.03
2018-06-22T08:20:46.528Z,17.17
2018-06-22T08:23:17.596Z,16.99
2018-06-22T08:25:53.558Z,16.96
2018-06-22T08:28:34.421Z,16.87
2018-06-22T08:31:07.292Z,17.03
2018-06-22T08:33:39.610Z,16.93
2018-06-22T08:36:11.665Z,17.02
2018-06-22T08:38:42.638Z,17.07
2018-06-22T08:41:15.221Z,17.18
2018-06-22T08:44:03.483Z,17.16
2018-06-22T08:47:08.719Z,16.89
2018-06-22T08:49:45.848Z,16.85
2018-06-22T08:52:20.417Z,16.83
2018-06-22T08:54:56.870Z,17.00
2018-06-22T08:57:30.072Z,17.00
2018-06-22T09:02:38.907Z,17.60
2018-06-22T09:05:12.136Z,17.77
2018-06-22T09:07:43.176Z,17.79
2018-06-22T09:10:14.061Z,17.89
2018-06-22T09:12:45.469Z,17.99
2018-06-22T09:15:17.942Z,18.11
2018-06-22T09:17:53.665Z,17.96
2018-06-22T09:20:28.589Z,18.03
2018-06-22T09:23:03.537Z,17.62
2018-06-22T09:25:40.344Z,17.54
2018-06-22T09:28:21.487Z,17.46
2018-06-22T09:30:54.369Z,17.49
2018-06-22T09:33:25.296Z,17.17
2018-06-22T09:35:58.042Z,16.96
2018-06-22T09:38:28.877Z,16.84
2018-06-22T09:41:00.095Z,16.88
2018-06-22T09:43:33.344Z,16.87
2018-06-22T09:46:05.715Z,16.89
2018-06-22T09:48:37.155Z,16.82
2018-06-22T09:51:12.524Z,17.08
2018-06-22T09:53:47.338Z,17.43
2018-06-22T09:56:20.687Z,17.60
2018-06-22T09:58:51.823Z,18.10
2018-06-22T10:01:24.944Z,18.59
2018-06-22T10:04:00.792Z,18.90
2018-06-22T10:06:34.217Z,19.05
2018-06-22T10:09:15.344Z,18.72
2018-06-22T10:11:56.944Z,18.67
2018-06-22T10:14:31.137Z,18.66
2018-06-22T10:18:08.799Z,18.82
2018-06-22T10:20:40.452Z,18.99
2018-06-22T10:23:10.884Z,18.99
2018-06-22T10:25:42.908Z,18.86
2018-06-22T10:28:21.480Z,18.90
2018-06-22T10:31:00.135Z,18.91
2018-06-22T10:33:43.756Z,19.05
2018-06-22T10:36:15.637Z,19.32
2018-06-22T10:38:54.874Z,19.32
2018-06-22T10:41:31.248Z,19.49
2018-06-22T10:44:05.842Z,18.94
2018-06-22T10:46:44.011Z,18.42
2018-06-22T10:49:17.206Z,18.07
2018-06-22T10:51:53.321Z,17.79
2018-06-22T10:54:28.542Z,17.57
2018-06-22T10:57:01.135Z,17.63
2018-06-22T10:59:31.652Z,17.89
2018-06-22T11:02:04.788Z,18.20
2018-06-22T11:04:38.842Z,18.37
2018-06-22T11:07:16.152Z,18.49
2018-06-22T11:09:48.635Z,18.45
2018-06-22T11:12:21.648Z,18.70
2018-06-22T11:18:25.489Z,18.69
2018-06-22T11:21:14.012Z,18.38
2018-06-22T11:23:51.023Z,18.26
2018-06-22T11:26:39.101Z,18.25
2018-06-22T11:29:21.858Z,17.94
2018-06-22T11:32:15.869Z,17.43
2018-06-22T11:34:54.787Z,17.52
2018-06-22T11:40:15.415Z,18.32
2018-06-22T11:42:55.401Z,18.69
2018-06-22T11:45:43.370Z,18.81
2018-06-22T11:50:58.874Z,18.99
2018-06-22T11:53:41.114Z,19.54
2018-06-22T11:56:17.196Z,20.63
2018-06-22T11:58:49.808Z,21.20
2018-06-22T12:01:27.749Z,21.50
2018-06-22T12:04:36.596Z,21.93
2018-06-22T12:07:14.736Z,22.75
2018-06-22T12:09:48.721Z,22.32
2018-06-22T12:12:21.284Z,21.73
2018-06-22T12:14:59.269Z,21.18
2018-06-22T12:17:43.152Z,19.95
2018-06-22T12:20:18.972Z,19.45
2018-06-22T12:23:01.524Z,19.31
2018-06-22T12:25:49.237Z,19.13
2018-06-22T12:28:24.709Z,18.97
2018-06-22T12:33:53.437Z,18.75
2018-06-22T12:36:26.330Z,18.56
2018-06-22T12:39:14.993Z,18.24
2018-06-22T12:41:51.517Z,18.17
2018-06-22T12:44:21.917Z,18.50
2018-06-22T12:46:56.974Z,18.62
2018-06-22T12:49:52.794Z,19.13
2018-06-22T12:52:29.827Z,19.70
2018-06-22T12:57:40.745Z,20.99
2018-06-22T13:00:28.440Z,21.76
2018-06-22T13:03:15.135Z,22.39
2018-06-22T13:05:49.703Z,23.35
2018-06-22T13:08:23.780Z,23.87
2018-06-22T13:10:57.372Z,24.26
2018-06-22T13:13:39.244Z,23.72
2018-06-22T13:18:53.956Z,22.88
2018-06-22T13:21:24.833Z,22.58
2018-06-22T13:23:56.146Z,22.33
2018-06-22T13:26:26.625Z,22.23
2018-06-22T13:28:57.995Z,21.86
2018-06-22T13:31:30.654Z,21.39
2018-06-22T13:36:49.484Z,22.48
2018-06-22T13:39:23.259Z,23.33
2018-06-22T13:41:59.612Z,23.27
2018-06-22T13:44:33.032Z,23.17
2018-06-22T13:47:07.454Z,23.11
2018-06-22T13:49:42.082Z,23.32
2018-06-22T13:55:35.740Z,22.67
2018-06-22T13:58:08.389Z,22.31
2018-06-22T14:00:43.110Z,22.04
2018-06-22T14:03:20.816Z,21.68
2018-06-22T14:06:01.004Z,21.36
2018-06-22T14:08:44.961Z,21.65
2018-06-22T14:11:18.392Z,22.22
2018-06-22T14:13:57.334Z,22.78
2018-06-22T14:16:41.126Z,22.64
2018-06-22T14:19:23.730Z,22.71
2018-06-22T14:21:56.344Z,22.95
2018-06-22T14:24:29.281Z,23.41
2018-06-22T14:27:09.914Z,23.80
2018-06-22T14:29:41.993Z,24.02
2018-06-22T14:32:15.418Z,23.98
2018-06-22T14:34:46.745Z,23.21
2018-06-22T14:37:22.919Z,23.54
2018-06-22T14:39:54.253Z,23.93
2018-06-22T14:42:34.469Z,23.67
2018-06-22T14:47:49.329Z,23.04
2018-06-22T14:50:26.575Z,23.16
2018-06-22T14:53:03.374Z,22.94
2018-06-22T14:55:41.194Z,22.36
2018-06-22T14:58:17.005Z,22.02
2018-06-22T15:00:54.023Z,22.41
2018-06-22T15:03:32.425Z,22.36
2018-06-22T15:06:24.821Z,22.32
2018-06-22T15:09:06.758Z,22.70
2018-06-22T15:11:39.278Z,23.08
2018-06-22T15:14:10.720Z,23.41
2018-06-22T15:16:52.155Z,23.58
2018-06-22T15:19:28.669Z,23.03
2018-06-22T15:22:03.258Z,22.67
2018-06-22T15:24:36.212Z,22.37
2018-06-22T15:27:20.949Z,22.20
2018-06-22T15:29:56.756Z,22.15
2018-06-22T15:32:27.899Z,22.14
2018-06-22T15:35:15.260Z,22.55
2018-06-22T15:37:53.154Z,22.61
2018-06-22T15:40:30.322Z,22.53
2018-06-22T15:43:08.274Z,22.82
2018-06-22T15:45:49.254Z,22.53
2018-06-22T15:48:32.243Z,22.06
2018-06-22T15:51:08.790Z,21.90
2018-06-22T15:53:50.164Z,21.70
2018-06-22T15:56:29.287Z,21.12
2018-06-22T15:59:00.559Z,21.08
2018-06-22T16:01:31.424Z,20.74
2018-06-22T16:04:12.293Z,20.67
2018-06-22T16:06:49.762Z,20.84
2018-06-22T16:09:27.660Z,20.77
2018-06-22T16:12:05.660Z,20.63
2018-06-22T16:20:29.701Z,20.59
2018-06-22T16:23:09.668Z,20.65
2018-06-22T16:25:56.130Z,20.49
2018-06-22T16:28:30.304Z,20.55
2018-06-22T16:31:06.104Z,20.76
2018-06-22T16:33:49.747Z,20.81
2018-06-22T16:36:32.438Z,20.61
2018-06-22T16:39:23.329Z,20.28
2018-06-22T16:42:02.288Z,20.49
2018-06-22T16:44:51.216Z,20.55
2018-06-22T16:50:24.393Z,20.34
2018-06-22T16:52:59.764Z,20.48
2018-06-22T16:55:42.713Z,20.28
2018-06-22T16:58:47.768Z,20.23
2018-06-22T17:01:26.457Z,20.12
2018-06-22T17:04:00.683Z,20.38
2018-06-22T17:06:36.212Z,20.44
2018-06-22T17:12:00.202Z,20.49
2018-06-22T17:14:38.730Z,20.54
2018-06-22T17:17:18.450Z,20.46
2018-06-22T17:22:48.444Z,20.42
2018-06-22T17:25:24.901Z,20.20
2018-06-22T17:27:59.409Z,20.05
2018-06-22T17:30:34.211Z,20.01
2018-06-22T17:33:08.732Z,19.72
2018-06-22T17:35:44.566Z,19.83
2018-06-22T17:38:31.308Z,19.87
2018-06-22T17:41:12.215Z,19.96
2018-06-22T17:43:56.438Z,20.01
2018-06-22T17:46:29.823Z,20.00
2018-06-22T17:49:03.307Z,20.19
2018-06-22T17:51:37.758Z,20.24
2018-06-22T17:54:18.417Z,20.21
2018-06-22T18:00:19.393Z,20.15
2018-06-22T18:03:00.243Z,20.34
2018-06-22T18:05:37.320Z,20.35
2018-06-22T18:08:15.963Z,20.36
2018-06-22T18:10:58.159Z,20.11
2018-06-22T18:13:43.913Z,19.88
2018-06-22T18:16:22.722Z,19.60
2018-06-22T18:19:05.264Z,19.48
2018-06-22T18:21:46.851Z,19.30
2018-06-22T18:27:28.145Z,19.09
2018-06-22T18:30:06.646Z,19.08
2018-06-22T18:32:50.902Z,18.92
2018-06-22T18:35:21.775Z,18.78
2018-06-22T18:37:52.780Z,18.80
2018-06-22T18:40:46.164Z,18.72
2018-06-22T18:43:32.972Z,18.66
2018-06-22T18:46:10.636Z,18.58
2018-06-22T18:48:42.925Z,18.69
2018-06-22T18:55:25.460Z,18.44
2018-06-22T18:58:12.232Z,18.54
2018-06-22T19:00:53.239Z,18.63
2018-06-22T19:03:40.695Z,18.66
2018-06-22T19:06:14.393Z,18.68
2018-06-22T19:08:49.198Z,18.50
2018-06-22T19:11:32.998Z,18.40
2018-06-22T19:14:45.005Z,18.41
2018-06-22T19:17:21.844Z,18.39
2018-06-22T19:20:02.362Z,18.41
2018-06-22T19:22:39.267Z,18.31
2018-06-22T19:25:14.784Z,18.36
2018-06-22T19:30:38.565Z,18.30
2018-06-22T19:33:11.351Z,18.19
2018-06-22T19:36:02.872Z,18.21
2018-06-22T19:42:03.683Z,18.26
2018-06-22T19:44:40.339Z,18.29
2018-06-22T19:47:20.539Z,18.40
2018-06-22T19:50:01.384Z,18.40
2018-06-22T19:52:51.626Z,18.43
2018-06-22T19:55:30.193Z,18.30
2018-06-22T19:58:02.282Z,18.25
2018-06-22T20:03:18.074Z,18.10
2018-06-22T20:05:49.930Z,18.05
2018-06-22T20:08:25.170Z,17.99
2018-06-22T20:13:42.464Z,17.74
2018-06-22T20:16:30.524Z,17.74
2018-06-22T20:19:09.438Z,17.63
2018-06-22T20:21:46.176Z,17.62
2018-06-22T20:24:36.511Z,17.64
2018-06-22T20:28:34.011Z,17.49
2018-06-22T20:31:07.801Z,17.42
2018-06-22T20:33:39.404Z,17.41
2018-06-22T20:36:21.232Z,17.44
2018-06-22T20:38:57.328Z,17.43
2018-06-22T20:41:35.868Z,17.44
2018-06-22T20:44:12.768Z,17.37
2018-06-22T20:46:49.171Z,17.48
2018-06-22T20:52:13.141Z,17.36
2018-06-22T20:54:53.515Z,17.32
2018-06-22T20:57:32.325Z,17.36
2018-06-22T21:00:35.585Z,17.26
2018-06-22T21:03:07.643Z,17.23
2018-06-22T21:05:42.191Z,17.22
2018-06-22T21:08:16.417Z,17.24
2018-06-22T21:10:53.921Z,17.22
2018-06-22T21:13:30.769Z,17.13
2018-06-22T21:16:11.912Z,17.23
2018-06-22T21:21:45.230Z,17.04
2018-06-22T21:24:17.790Z,17.00
2018-06-22T21:26:53.375Z,17.00
2018-06-22T21:29:32.413Z,16.87
2018-06-22T21:32:10.714Z,16.73
2018-06-22T21:34:49.205Z,16.47
2018-06-22T21:37:34.072Z,15.91
2018-06-22T21:40:12.668Z,16.54
2018-06-22T21:42:49.309Z,16.48
2018-06-22T21:45:37.212Z,16.54
2018-06-22T21:48:12.654Z,16.40
2018-06-22T21:50:45.791Z,16.47
2018-06-22T21:56:24.502Z,16.43
2018-06-22T21:58:58.278Z,16.42
2018-06-22T22:01:34.575Z,16.36
2018-06-22T22:04:06.532Z,16.53
2018-06-22T22:06:37.209Z,16.24
2018-06-22T22:09:14.174Z,16.50
2018-06-22T22:11:57.417Z,16.44
2018-06-22T22:14:31.121Z,16.54
2018-06-22T22:17:02.618Z,16.56
2018-06-22T22:19:36.687Z,16.52
2018-06-22T22:22:09.750Z,16.52
2018-06-22T22:24:46.219Z,16.10
2018-06-22T22:27:21.473Z,16.25
2018-06-22T22:29:52.051Z,16.26
2018-06-22T22:32:27.146Z,16.35
2018-06-22T22:35:01.281Z,16.48
2018-06-22T22:37:36.438Z,16.57
2018-06-22T22:40:15.668Z,16.57
2018-06-22T22:43:21.758Z,16.57
2018-06-22T22:45:55.286Z,16.55
2018-06-22T22:48:29.004Z,16.65
2018-06-22T22:51:04.898Z,16.69
2018-06-22T22:53:38.198Z,16.51
2018-06-22T22:56:09.917Z,16.50
2018-06-22T22:58:45.436Z,16.47
2018-06-22T23:01:22.706Z,16.52
2018-06-22T23:03:53.584Z,16.56
2018-06-22T23:06:28.617Z,16.56
2018-06-22T23:08:59.338Z,16.52
2018-06-22T23:11:31.652Z,16.53
2018-06-22T23:14:04.521Z,16.52
2018-06-22T23:16:38.348Z,16.47
2018-06-22T23:19:12.055Z,16.56
2018-06-22T23:21:44.509Z,16.60
2018-06-22T23:24:15.684Z,16.50
2018-06-22T23:26:47.165Z,16.46
2018-06-22T23:29:17.524Z,16.46
2018-06-22T23:31:50.668Z,16.42
2018-06-22T23:34:22.669Z,16.42
2018-06-22T23:36:54.082Z,16.46
2018-06-22T23:39:31.792Z,16.42
2018-06-22T23:42:03.303Z,16.39
2018-06-22T23:44:35.213Z,16.36
2018-06-22T23:47:12.014Z,16.26
2018-06-22T23:49:42.409Z,16.24
2018-06-22T23:52:14.779Z,16.28
2018-06-22T23:54:45.440Z,16.36
2018-06-22T23:57:18.126Z,16.38
2018-06-22T23:59:50.755Z,16.30
